Sand Lake, Florida
Current Conditions -  °F | °C
As of 3:36 PM on Tuesday 25 Nov 2014 (Local Time) from KMCO Reporting Station
Thunderstorm Thunderstorm  
Wind Chill: 76°   Ceiling: 2000
Heat Index: 76°   Visibility: 6mi
Dew Point: 75°   Wind: 6mph
Humidity: 97%   Direction: 120°ESE
Pressure: 29.89"   Gusts: NA
Location:  28.4565°N, 81.4676°W
Report Text: KMCO 252036Z 12005KT 6SM -TSRA BR FEW005 BKN020CB OVC055 24/24 A2989 RMK AO2 TSB29 OCNL LTGIC S TS S MOV NE P0022 T02440239
Loading
Personal Weather Stations






























Interactive Weather Map New forecast layout! Learn more

10-Day Weather Forecast

Advertisements
Track Severe Weather on mobile